Home   Weather   San Mateo   Past weeks
Flag for USA

Past Weather in San Mateo, Florida, USA — Yesterday and Last 2 Weeks

Currently: 85 °F. Warm. (Weather station: Bellair-Meadowbrook Terrace - MADIS Station, USA). See more current weather

Past Weather in San Mateo — Graph

°F

San Mateo Temperature Yesterday

Maximum temperature yesterday: 85 °F (at 2:18 pm)
Minimum temperature yesterday: 67 °F (at 6:18 am)
Average temperature yesterday: 76 °F

High & Low Weather Summary for the Past Weeks

 TemperatureHumidityPressure
High91 °F (Sep 15, 2:03 pm)94% (Sep 15, 4:48 am)30.24 "Hg (Sep 15, 4:48 am)
Low64 °F (Sep 24, 7:18 am)45% (Sep 23, 6:18 pm)29.78 "Hg (Sep 22, 7:18 pm)
Average79 °F80%30.00 "Hg
* Reported Sep 11 2:18 pm — Sep 26 2:18 pm, San Mateo. Weather by CustomWeather, © 2021

Note: Actual official high and low records may vary slightly from our data, if they occured in-between our weather recording intervals... More about our weather records

San Mateo Weather History for the Previous 24 Hours

Scroll right to see more
 ConditionsComfort  
Time TempWeatherWind HumidityBarometerVisibility
2:18 pm
Sun, Sep 26
86 °FWarm.2 mph52%30.05 "HgN/A
1:48 pm85 °FWarm.2 mph52%30.06 "HgN/A
1:03 pm85 °FWarm.1 mph54%30.08 "HgN/A
12:33 pm82 °FWarm.2 mph56%30.09 "HgN/A
12:18 pm83 °FWarm.1 mph56%30.09 "HgN/A
11:18 am81 °FWarm.2 mph59%30.10 "HgN/A
11:03 am80 °FMild.1 mph61%30.10 "HgN/A
10:33 am78 °FMild.2 mph67%30.09 "HgN/A
10:18 am77 °FMild.1 mph66%30.09 "HgN/A
10:03 am76 °FMild.No wind72%30.09 "HgN/A
9:18 am72 °FMild.No wind83%30.08 "HgN/A
8:18 am66 °FCool.No wind92%30.07 "HgN/A
8:03 am65 °FCool.No wind92%30.07 "HgN/A
7:33 am65 °FCool.No wind92%30.05 "HgN/A
7:18 am65 °FCool.No wind91%30.05 "HgN/A
6:33 am66 °FCool.No wind91%30.04 "HgN/A
5:48 am67 °FCool.No wind91%30.04 "HgN/A
4:48 am66 °FCool.No wind90%30.03 "HgN/A
3:03 am68 °FCool.No wind88%30.02 "HgN/A
2:48 am68 °FCool.No wind88%30.03 "HgN/A
2:18 am68 °FCool.No wind87%30.03 "HgN/A
2:03 am68 °FCool.No wind86%30.03 "HgN/A
1:48 am68 °FCool.No wind86%30.04 "HgN/A
1:18 am69 °FCool.No wind85%30.04 "HgN/A
1:03 am69 °FCool.No wind85%30.04 "HgN/A
12:48 am69 °FCool.No wind84%30.04 "HgN/A
12:18 am70 °FCool.No wind83%30.04 "HgN/A
12:03 am70 °FCool.1 mph82%30.04 "HgN/A
11:33 pm
Sat, Sep 25
71 °FCool.No wind79%30.03 "HgN/A
11:18 pm72 °FMild.No wind78%30.04 "HgN/A
10:33 pm74 °FMild.No wind74%30.03 "HgN/A
10:18 pm75 °FMild.No wind73%30.02 "HgN/A
10:03 pm75 °FMild.1 mph72%30.02 "HgN/A
9:18 pm74 °FMild.No wind73%30.01 "HgN/A
8:18 pm76 °FMild.1 mph70%29.99 "HgN/A
8:03 pm76 °FMild.No wind69%29.98 "HgN/A
7:48 pm77 °FMild.1 mph69%29.98 "HgN/A
7:18 pm78 °FMild.1 mph67%29.98 "HgN/A
6:48 pm79 °FMild.1 mph65%29.97 "HgN/A
6:18 pm80 °FMild.No wind65%29.98 "HgN/A
6:03 pm81 °FWarm.1 mph62%29.98 "HgN/A
5:33 pm83 °FWarm.1 mph62%29.97 "HgN/A
5:18 pm84 °FWarm.1 mph60%29.97 "HgN/A
5:03 pm84 °FWarm.1 mph61%29.96 "HgN/A
4:33 pm85 °FWarm.2 mph59%29.97 "HgN/A
4:18 pm85 °FWarm.1 mph60%29.96 "HgN/A
4:03 pm85 °FWarm.2 mph59%29.97 "HgN/A
Weather by CustomWeather, © 2021

See weather overview